createdAt,value
2022-12-11T00:00:10.658Z,0.00
2022-12-11T00:01:10.659Z,0.00
2022-12-11T00:02:10.735Z,0.02
2022-12-11T00:03:15.584Z,0.03
2022-12-11T00:04:11.636Z,0.03
2022-12-11T00:05:10.930Z,0.04
2022-12-11T00:06:10.607Z,0.07
2022-12-11T00:07:10.584Z,0.08
2022-12-11T00:08:10.612Z,0.08
2022-12-11T00:09:10.557Z,0.10
2022-12-11T00:10:10.599Z,0.11
2022-12-11T00:11:10.538Z,0.13
2022-12-11T00:12:10.587Z,0.14
2022-12-11T00:13:10.519Z,0.15
2022-12-11T00:14:10.537Z,0.17
2022-12-11T00:15:10.655Z,0.18
2022-12-11T00:16:10.648Z,0.20
2022-12-11T00:17:10.505Z,0.23
2022-12-11T00:18:10.519Z,0.24
2022-12-11T00:19:10.456Z,0.28
2022-12-11T00:20:10.467Z,0.29
2022-12-11T00:21:10.429Z,0.29
2022-12-11T00:22:10.470Z,0.31
2022-12-11T00:23:10.412Z,0.33
2022-12-11T00:24:10.409Z,0.32
2022-12-11T00:25:10.710Z,0.33
2022-12-11T00:26:10.388Z,0.36
2022-12-11T00:27:10.358Z,0.35
2022-12-11T00:28:10.412Z,0.36
2022-12-11T00:29:10.349Z,0.36
2022-12-11T00:30:10.419Z,0.38
2022-12-11T00:31:10.328Z,0.36
2022-12-11T00:32:10.740Z,0.38
2022-12-11T00:33:10.309Z,0.39
2022-12-11T00:34:10.339Z,0.36
2022-12-11T00:35:10.665Z,0.38
2022-12-11T00:36:10.282Z,0.39
2022-12-11T00:37:10.293Z,0.39
2022-12-11T00:38:10.263Z,0.39
2022-12-11T00:39:10.238Z,0.38
2022-12-11T00:40:10.278Z,0.41
2022-12-11T00:41:10.226Z,0.39
2022-12-11T00:42:10.270Z,0.41
2022-12-11T00:43:10.208Z,0.39
2022-12-11T00:44:10.210Z,0.39
2022-12-11T00:45:10.556Z,0.41
2022-12-11T00:46:10.273Z,0.41
2022-12-11T00:47:10.159Z,0.42
2022-12-11T00:48:10.201Z,0.42
2022-12-11T00:49:10.146Z,0.41
2022-12-11T00:50:10.138Z,0.42
2022-12-11T00:51:10.117Z,0.41
2022-12-11T00:52:10.143Z,0.41
2022-12-11T00:53:10.108Z,0.42
2022-12-11T00:54:10.221Z,0.42
2022-12-11T00:55:10.409Z,0.44
2022-12-11T00:56:10.079Z,0.44
2022-12-11T00:57:10.062Z,0.44
2022-12-11T00:58:10.074Z,0.44
2022-12-11T00:59:10.059Z,0.46
2022-12-11T01:00:10.044Z,0.46
2022-12-11T01:01:10.072Z,0.46
2022-12-11T01:02:10.003Z,0.47
2022-12-11T01:03:10.030Z,0.49
2022-12-11T01:04:09.999Z,0.49
2022-12-11T01:05:10.337Z,0.49
2022-12-11T01:06:09.999Z,0.49
2022-12-11T01:07:09.951Z,0.50
2022-12-11T01:08:10.019Z,0.50
2022-12-11T01:09:09.939Z,0.49
2022-12-11T01:10:09.995Z,0.49
2022-12-11T01:11:09.920Z,0.50
2022-12-11T01:12:09.915Z,0.49
2022-12-11T01:13:09.880Z,0.49
2022-12-11T01:14:10.010Z,0.49
2022-12-11T01:15:10.144Z,0.50
2022-12-11T01:16:09.879Z,0.50
2022-12-11T01:17:09.858Z,0.49
2022-12-11T01:18:09.951Z,0.49
2022-12-11T01:19:09.830Z,0.50
2022-12-11T01:20:09.857Z,0.50
2022-12-11T01:21:09.815Z,0.49
2022-12-11T01:22:09.848Z,0.50
2022-12-11T01:23:09.805Z,0.50
2022-12-11T01:24:09.806Z,0.51
2022-12-11T01:25:10.097Z,0.50
2022-12-11T01:26:09.838Z,0.51
2022-12-11T01:27:09.740Z,0.51
2022-12-11T01:28:09.730Z,0.51
2022-12-11T01:29:09.720Z,0.51
2022-12-11T01:30:09.747Z,0.49
2022-12-11T01:31:09.739Z,0.47
2022-12-11T01:32:09.724Z,0.47
2022-12-11T01:33:09.669Z,0.49
2022-12-11T01:34:09.666Z,0.49
2022-12-11T01:35:09.915Z,0.50
2022-12-11T01:36:09.655Z,0.47
2022-12-11T01:37:09.641Z,0.47
2022-12-11T01:38:09.631Z,0.46
2022-12-11T01:39:09.620Z,0.46
2022-12-11T01:40:09.607Z,0.46
2022-12-11T01:41:09.599Z,0.46
2022-12-11T01:42:09.617Z,0.44
2022-12-11T01:43:09.569Z,0.42
2022-12-11T01:44:09.573Z,0.42
2022-12-11T01:45:09.690Z,0.44
2022-12-11T01:46:09.621Z,0.42
2022-12-11T01:47:09.524Z,0.44
2022-12-11T01:48:09.557Z,0.44
2022-12-11T01:49:09.501Z,0.44
2022-12-11T01:50:09.561Z,0.44
2022-12-11T01:51:09.506Z,0.44
2022-12-11T01:52:09.527Z,0.44
2022-12-11T01:53:09.462Z,0.44
2022-12-11T01:54:09.452Z,0.44
2022-12-11T01:55:09.869Z,0.44
2022-12-11T01:56:09.501Z,0.46
2022-12-11T01:57:09.413Z,0.44
2022-12-11T01:58:09.589Z,0.47
2022-12-11T01:59:09.401Z,0.47
2022-12-11T02:00:09.401Z,0.47
2022-12-11T02:01:09.443Z,0.44
2022-12-11T02:02:09.491Z,0.47
2022-12-11T02:03:09.353Z,0.47
2022-12-11T02:04:09.384Z,0.47
2022-12-11T02:05:09.540Z,0.46
2022-12-11T02:06:09.443Z,0.49
2022-12-11T02:07:09.314Z,0.49
2022-12-11T02:08:09.444Z,0.49
2022-12-11T02:09:09.293Z,0.49
2022-12-11T02:10:09.352Z,0.47
2022-12-11T02:11:09.345Z,0.49
2022-12-11T02:12:09.298Z,0.50
2022-12-11T02:13:09.254Z,0.47
2022-12-11T02:14:09.247Z,0.49
2022-12-11T02:15:09.633Z,0.49
2022-12-11T02:16:09.272Z,0.51
2022-12-11T02:17:09.232Z,0.49
2022-12-11T02:18:09.230Z,0.50
2022-12-11T02:19:09.194Z,0.49
2022-12-11T02:20:09.253Z,0.50
2022-12-11T02:21:09.175Z,0.49
2022-12-11T02:22:09.222Z,0.49
2022-12-11T02:23:09.162Z,0.50
2022-12-11T02:24:09.156Z,0.50
2022-12-11T02:25:09.407Z,0.49
2022-12-11T02:26:09.197Z,0.49
2022-12-11T02:27:09.122Z,0.49
2022-12-11T02:28:09.133Z,0.50
2022-12-11T02:29:09.119Z,0.50
2022-12-11T02:30:09.066Z,0.49
2022-12-11T02:31:09.104Z,0.50
2022-12-11T02:32:09.214Z,0.50
2022-12-11T02:33:09.042Z,0.50
2022-12-11T02:34:09.036Z,0.49
2022-12-11T02:35:09.439Z,0.49
2022-12-11T02:36:09.062Z,0.50
2022-12-11T02:37:09.015Z,0.50
2022-12-11T02:38:09.074Z,0.50
2022-12-11T02:39:08.995Z,0.50
2022-12-11T02:40:09.120Z,0.51
2022-12-11T02:41:08.964Z,0.50
2022-12-11T02:42:09.051Z,0.49
2022-12-11T02:43:08.941Z,0.49
2022-12-11T02:44:08.987Z,0.49
2022-12-11T02:45:09.216Z,0.49
2022-12-11T02:46:08.953Z,0.49
2022-12-11T02:47:08.903Z,0.49
2022-12-11T02:48:08.916Z,0.50
2022-12-11T02:49:08.874Z,0.49
2022-12-11T02:50:08.864Z,0.49
2022-12-11T02:51:08.854Z,0.47
2022-12-11T02:52:08.924Z,0.49
2022-12-11T02:53:08.853Z,0.47
2022-12-11T02:54:08.932Z,0.50
2022-12-11T02:55:09.273Z,0.47
2022-12-11T02:56:09.027Z,0.46
2022-12-11T02:57:08.814Z,0.46
2022-12-11T02:58:08.845Z,0.44
2022-12-11T02:59:08.780Z,0.46
2022-12-11T03:00:08.782Z,0.47
2022-12-11T03:01:08.792Z,0.47
2022-12-11T03:02:08.816Z,0.47
2022-12-11T03:03:08.726Z,0.49
2022-12-11T03:04:08.784Z,0.47
2022-12-11T03:05:09.218Z,0.49
2022-12-11T03:06:08.736Z,0.47
2022-12-11T03:07:08.695Z,0.47
2022-12-11T03:08:08.724Z,0.47
2022-12-11T03:09:08.677Z,0.47
2022-12-11T03:10:08.867Z,0.47
2022-12-11T03:11:08.664Z,0.46
2022-12-11T03:12:08.751Z,0.46
2022-12-11T03:13:08.675Z,0.44
2022-12-11T03:14:08.704Z,0.46
2022-12-11T03:15:09.025Z,0.47
2022-12-11T03:16:08.689Z,0.46
2022-12-11T03:17:08.574Z,0.44
2022-12-11T03:18:08.593Z,0.44
2022-12-11T03:19:08.555Z,0.46
2022-12-11T03:20:08.581Z,0.44
2022-12-11T03:21:08.535Z,0.42
2022-12-11T03:22:08.756Z,0.42
2022-12-11T03:23:08.526Z,0.44
2022-12-11T03:24:08.515Z,0.44
2022-12-11T03:25:08.781Z,0.44
2022-12-11T03:26:08.518Z,0.44
2022-12-11T03:27:11.287Z,0.46
2022-12-11T03:28:08.502Z,0.47
2022-12-11T03:29:08.521Z,0.47
2022-12-11T03:30:08.494Z,0.49
2022-12-11T03:31:08.479Z,0.49
2022-12-11T03:32:08.436Z,0.47
2022-12-11T03:33:08.415Z,0.47
2022-12-11T03:34:08.405Z,0.50
2022-12-11T03:35:08.385Z,0.49
2022-12-11T03:36:08.376Z,0.51
2022-12-11T03:37:08.365Z,0.50
2022-12-11T03:38:08.385Z,0.50
2022-12-11T03:39:08.447Z,0.50
2022-12-11T03:40:08.377Z,0.51
2022-12-11T03:41:08.325Z,0.50
2022-12-11T03:42:08.388Z,0.51
2022-12-11T03:43:08.328Z,0.50
2022-12-11T03:44:08.376Z,0.51
2022-12-11T03:45:08.520Z,0.51
2022-12-11T03:46:08.332Z,0.51
2022-12-11T03:47:08.265Z,0.51
2022-12-11T03:48:08.286Z,0.51
2022-12-11T03:49:08.234Z,0.53
2022-12-11T03:50:08.403Z,0.55
2022-12-11T03:51:08.257Z,0.55
2022-12-11T03:52:08.206Z,0.55
2022-12-11T03:53:08.241Z,0.53
2022-12-11T03:54:08.256Z,0.53
2022-12-11T03:55:08.524Z,0.55
2022-12-11T03:56:08.216Z,0.53
2022-12-11T03:57:08.156Z,0.53
2022-12-11T03:58:08.177Z,0.51
2022-12-11T03:59:08.158Z,0.51
2022-12-11T04:00:08.146Z,0.51
2022-12-11T04:01:08.161Z,0.51
2022-12-11T04:02:08.225Z,0.53
2022-12-11T04:03:12.986Z,0.53
2022-12-11T04:04:09.106Z,0.51
2022-12-11T04:05:08.345Z,0.53
2022-12-11T04:06:08.070Z,0.53
2022-12-11T04:07:08.039Z,0.53
2022-12-11T04:08:08.186Z,0.53
2022-12-11T04:09:08.029Z,0.53
2022-12-11T04:10:08.033Z,0.55
2022-12-11T04:11:08.018Z,0.55
2022-12-11T04:12:08.014Z,0.55
2022-12-11T04:13:08.016Z,0.55
2022-12-11T04:14:08.017Z,0.57
2022-12-11T04:15:08.037Z,0.55
2022-12-11T04:16:07.992Z,0.53
2022-12-11T04:17:07.939Z,0.55
2022-12-11T04:18:07.951Z,0.55
2022-12-11T04:19:07.921Z,0.53
2022-12-11T04:20:07.937Z,0.53
2022-12-11T04:21:07.897Z,0.53
2022-12-11T04:22:07.949Z,0.53
2022-12-11T04:23:07.888Z,0.53
2022-12-11T04:24:07.949Z,0.51
2022-12-11T04:25:08.142Z,0.51
2022-12-11T04:26:07.987Z,0.51
2022-12-11T04:27:07.997Z,0.55
2022-12-11T04:28:07.886Z,0.53
2022-12-11T04:29:07.907Z,0.51
2022-12-11T04:30:07.828Z,0.53
2022-12-11T04:31:07.986Z,0.51
2022-12-11T04:32:07.818Z,0.49
2022-12-11T04:33:07.784Z,0.50
2022-12-11T04:34:07.780Z,0.50
2022-12-11T04:35:08.117Z,0.51
2022-12-11T04:36:07.775Z,0.51
2022-12-11T04:37:07.720Z,0.50
2022-12-11T04:38:08.017Z,0.50
2022-12-11T04:39:07.696Z,0.49
2022-12-11T04:40:07.710Z,0.50
2022-12-11T04:41:07.706Z,0.51
2022-12-11T04:42:07.706Z,0.49
2022-12-11T04:43:07.678Z,0.49
2022-12-11T04:44:07.708Z,0.47
2022-12-11T04:45:07.856Z,0.47
2022-12-11T04:46:07.669Z,0.50
2022-12-11T04:47:07.628Z,0.50
2022-12-11T04:48:07.727Z,0.50
2022-12-11T04:49:07.602Z,0.50
2022-12-11T04:50:07.605Z,0.50
2022-12-11T04:51:07.577Z,0.53
2022-12-11T04:52:07.656Z,0.51
2022-12-11T04:53:07.567Z,0.53
2022-12-11T04:54:07.764Z,0.53
2022-12-11T04:55:07.674Z,0.51
2022-12-11T04:56:07.583Z,0.51
2022-12-11T04:57:07.509Z,0.51
2022-12-11T04:58:07.538Z,0.51
2022-12-11T04:59:07.499Z,0.53
2022-12-11T05:00:07.512Z,0.53
2022-12-11T05:01:07.467Z,0.51
2022-12-11T05:02:07.604Z,0.53
2022-12-11T05:03:07.475Z,0.53
2022-12-11T05:04:07.527Z,0.50
2022-12-11T05:05:07.454Z,0.51
2022-12-11T05:06:07.470Z,0.50
2022-12-11T05:07:07.408Z,0.50
2022-12-11T05:08:07.699Z,0.50
2022-12-11T05:09:07.478Z,0.50
2022-12-11T05:10:07.420Z,0.50
2022-12-11T05:11:07.359Z,0.51
2022-12-11T05:12:07.460Z,0.51
2022-12-11T05:13:07.359Z,0.51
2022-12-11T05:14:07.443Z,0.51
2022-12-11T05:15:07.338Z,0.53
2022-12-11T05:16:07.446Z,0.53
2022-12-11T05:17:07.308Z,0.53
2022-12-11T05:18:07.408Z,0.53
2022-12-11T05:19:07.289Z,0.53
2022-12-11T05:20:07.372Z,0.53
2022-12-11T05:21:07.258Z,0.55
2022-12-11T05:22:07.339Z,0.53
2022-12-11T05:23:07.239Z,0.53
2022-12-11T05:24:07.325Z,0.53
2022-12-11T05:25:07.288Z,0.53
2022-12-11T05:26:07.239Z,0.53
2022-12-11T05:27:07.210Z,0.51
2022-12-11T05:28:07.211Z,0.55
2022-12-11T05:29:07.189Z,0.53
2022-12-11T05:30:07.180Z,0.51
2022-12-11T05:31:07.212Z,0.53
2022-12-11T05:32:07.189Z,0.50
2022-12-11T05:33:07.139Z,0.50
2022-12-11T05:34:07.230Z,0.50
2022-12-11T05:35:07.111Z,0.50
2022-12-11T05:36:07.105Z,0.50
2022-12-11T05:37:07.100Z,0.50
2022-12-11T05:38:07.159Z,0.50
2022-12-11T05:39:07.089Z,0.49
2022-12-11T05:40:07.205Z,0.50
2022-12-11T05:41:07.061Z,0.50
2022-12-11T05:42:07.060Z,0.51
2022-12-11T05:43:07.069Z,0.50
2022-12-11T05:44:07.133Z,0.51
2022-12-11T05:45:07.001Z,0.53
2022-12-11T05:46:07.116Z,0.51
2022-12-11T05:47:06.991Z,0.53
2022-12-11T05:48:07.083Z,0.53
2022-12-11T05:49:06.999Z,0.53
2022-12-11T05:50:07.000Z,0.57
2022-12-11T05:51:06.952Z,0.55
2022-12-11T05:52:07.042Z,0.57
2022-12-11T05:53:06.923Z,0.57
2022-12-11T05:54:06.992Z,0.57
2022-12-11T05:55:06.904Z,0.58
2022-12-11T05:56:06.931Z,0.57
2022-12-11T05:57:06.882Z,0.58
2022-12-11T05:58:06.953Z,0.57
2022-12-11T05:59:06.870Z,0.57
2022-12-11T06:00:06.902Z,0.58
2022-12-11T06:01:06.840Z,0.58
2022-12-11T06:02:06.878Z,0.58
2022-12-11T06:03:06.921Z,0.57
2022-12-11T06:04:06.840Z,0.55
2022-12-11T06:05:06.807Z,0.55
2022-12-11T06:06:06.832Z,0.55
2022-12-11T06:07:06.782Z,0.53
2022-12-11T06:08:06.893Z,0.53
2022-12-11T06:09:06.762Z,0.51
2022-12-11T06:10:06.764Z,0.53
2022-12-11T06:11:06.739Z,0.51
2022-12-11T06:12:06.779Z,0.51
2022-12-11T06:13:06.712Z,0.53
2022-12-11T06:14:06.711Z,0.53
2022-12-11T06:15:06.710Z,0.51
2022-12-11T06:16:06.806Z,0.53
2022-12-11T06:17:06.671Z,0.51
2022-12-11T06:18:06.730Z,0.53
2022-12-11T06:19:06.652Z,0.53
2022-12-11T06:20:06.743Z,0.51
2022-12-11T06:21:06.621Z,0.50
2022-12-11T06:22:06.673Z,0.51
2022-12-11T06:23:06.614Z,0.51
2022-12-11T06:24:06.636Z,0.51
2022-12-11T06:25:06.589Z,0.55
2022-12-11T06:26:06.611Z,0.53
2022-12-11T06:27:06.572Z,0.51
2022-12-11T06:28:06.565Z,0.53
2022-12-11T06:29:10.955Z,0.51
2022-12-11T06:30:07.664Z,0.53
2022-12-11T06:31:06.522Z,0.53
2022-12-11T06:32:06.659Z,0.51
2022-12-11T06:33:06.524Z,0.51
2022-12-11T06:34:06.541Z,0.53
2022-12-11T06:35:06.485Z,0.51
2022-12-11T06:36:06.505Z,0.51
2022-12-11T06:37:06.454Z,0.51
2022-12-11T06:38:06.621Z,0.53
2022-12-11T06:39:06.443Z,0.51
2022-12-11T06:40:06.514Z,0.51
2022-12-11T06:41:06.417Z,0.53
2022-12-11T06:42:06.485Z,0.53
2022-12-11T06:43:06.404Z,0.51
2022-12-11T06:44:06.439Z,0.51
2022-12-11T06:45:06.394Z,0.50
2022-12-11T06:46:06.430Z,0.50
2022-12-11T06:47:06.352Z,0.50
2022-12-11T06:48:06.419Z,0.50
2022-12-11T06:49:06.334Z,0.50
2022-12-11T06:50:06.334Z,0.51
2022-12-11T06:51:06.305Z,0.51
2022-12-11T06:52:06.373Z,0.53
2022-12-11T06:53:06.303Z,0.51
2022-12-11T06:54:06.393Z,0.53
2022-12-11T06:55:06.293Z,0.55
2022-12-11T06:56:06.311Z,0.53
2022-12-11T06:57:06.251Z,0.53
2022-12-11T06:58:06.252Z,0.55
2022-12-11T06:59:07.653Z,0.53
2022-12-11T07:00:06.243Z,0.55
2022-12-11T07:01:06.225Z,0.53
2022-12-11T07:02:06.260Z,0.55
2022-12-11T07:03:06.191Z,0.55
2022-12-11T07:04:06.193Z,0.53
2022-12-11T07:05:06.186Z,0.53
2022-12-11T07:06:06.156Z,0.53
2022-12-11T07:07:06.135Z,0.53
2022-12-11T07:08:06.192Z,0.53
2022-12-11T07:09:06.131Z,0.51
2022-12-11T07:10:08.621Z,0.53
2022-12-11T07:11:06.096Z,0.55
2022-12-11T07:12:06.144Z,0.57
2022-12-11T07:13:06.064Z,0.53
2022-12-11T07:14:06.113Z,0.55
2022-12-11T07:15:06.064Z,0.55
2022-12-11T07:16:06.079Z,0.55
2022-12-11T07:17:06.053Z,0.53
2022-12-11T07:18:06.023Z,0.57
2022-12-11T07:19:06.005Z,0.55
2022-12-11T07:20:06.031Z,0.55
2022-12-11T07:21:05.999Z,0.55
2022-12-11T07:22:06.063Z,0.55
2022-12-11T07:23:05.974Z,0.55
2022-12-11T07:24:05.974Z,0.55
2022-12-11T07:25:05.955Z,0.57
2022-12-11T07:26:05.959Z,0.58
2022-12-11T07:27:05.937Z,0.58
2022-12-11T07:28:05.938Z,0.58
2022-12-11T07:29:05.943Z,0.57
2022-12-11T07:30:05.989Z,0.57
2022-12-11T07:31:05.875Z,0.58
2022-12-11T07:32:05.977Z,0.57
2022-12-11T07:33:05.874Z,0.57
2022-12-11T07:34:05.858Z,0.57
2022-12-11T07:35:05.854Z,0.58
2022-12-11T07:36:05.845Z,0.58
2022-12-11T07:37:05.818Z,0.58
2022-12-11T07:38:05.819Z,0.60
2022-12-11T07:39:05.794Z,0.60
2022-12-11T07:40:05.849Z,0.58
2022-12-11T07:41:05.775Z,0.61
2022-12-11T07:42:05.814Z,0.61
2022-12-11T07:43:05.776Z,0.61
2022-12-11T07:44:05.786Z,0.61
2022-12-11T07:45:05.753Z,0.62
2022-12-11T07:46:05.845Z,0.60
2022-12-11T07:47:06.005Z,0.58
2022-12-11T07:48:05.703Z,0.60
2022-12-11T07:49:05.689Z,0.60
2022-12-11T07:50:05.719Z,0.57
2022-12-11T07:51:05.720Z,0.57
2022-12-11T07:52:05.683Z,0.57
2022-12-11T07:53:05.648Z,0.58
2022-12-11T07:54:05.652Z,0.57
2022-12-11T07:55:05.624Z,0.58
2022-12-11T07:56:05.689Z,0.60
2022-12-11T07:57:08.164Z,0.60
2022-12-11T07:58:06.678Z,0.60
2022-12-11T07:59:05.587Z,0.61
2022-12-11T08:00:05.633Z,0.61
2022-12-11T08:01:05.633Z,0.62
2022-12-11T08:02:05.633Z,0.62
2022-12-11T08:03:05.544Z,0.62
2022-12-11T08:04:05.536Z,0.62
2022-12-11T08:05:05.544Z,0.62
2022-12-11T08:06:05.536Z,0.62
2022-12-11T08:07:05.495Z,0.65
2022-12-11T08:08:05.557Z,0.65
2022-12-11T08:09:05.498Z,0.65
2022-12-11T08:10:05.474Z,0.65
2022-12-11T08:11:05.468Z,0.62
2022-12-11T08:12:05.461Z,0.65
2022-12-11T08:13:05.425Z,0.62
2022-12-11T08:14:05.428Z,0.62
2022-12-11T08:15:05.498Z,0.65
2022-12-11T08:16:05.425Z,0.62
2022-12-11T08:17:05.494Z,0.65
2022-12-11T08:18:05.468Z,0.65
2022-12-11T08:19:05.400Z,0.65
2022-12-11T08:20:05.442Z,0.65
2022-12-11T08:21:05.365Z,0.62
2022-12-11T08:22:05.350Z,0.65
2022-12-11T08:23:05.335Z,0.66
2022-12-11T08:24:05.469Z,0.65
2022-12-11T08:25:05.307Z,0.66
2022-12-11T08:26:05.309Z,0.68
2022-12-11T08:27:05.295Z,0.68
2022-12-11T08:28:05.404Z,0.68
2022-12-11T08:29:05.267Z,0.66
2022-12-11T08:30:05.288Z,0.68
2022-12-11T08:31:05.344Z,0.66
2022-12-11T08:32:10.546Z,0.68
2022-12-11T08:33:06.217Z,0.68
2022-12-11T08:34:05.251Z,0.69
2022-12-11T08:35:05.199Z,0.70
2022-12-11T08:36:05.217Z,0.72
2022-12-11T08:37:05.186Z,0.72
2022-12-11T08:38:05.187Z,0.73
2022-12-11T08:39:05.161Z,0.75
2022-12-11T08:40:05.147Z,0.75
2022-12-11T08:41:05.170Z,0.73
2022-12-11T08:42:05.180Z,0.73
2022-12-11T08:43:05.191Z,0.72
2022-12-11T08:44:06.104Z,0.72
2022-12-11T08:45:05.117Z,0.75
2022-12-11T08:46:05.146Z,0.73
2022-12-11T08:47:05.084Z,0.72
2022-12-11T08:48:05.218Z,0.72
2022-12-11T08:49:05.048Z,0.70
2022-12-11T08:50:05.058Z,0.72
2022-12-11T08:51:05.049Z,0.73
2022-12-11T08:52:05.040Z,0.73
2022-12-11T08:53:05.203Z,0.73
2022-12-11T08:54:05.036Z,0.73
2022-12-11T08:55:04.988Z,0.72
2022-12-11T08:56:04.992Z,0.70
2022-12-11T08:57:04.977Z,0.72
2022-12-11T08:58:05.076Z,0.72
2022-12-11T08:59:04.988Z,0.73
2022-12-11T09:00:04.996Z,0.75
2022-12-11T09:01:04.999Z,0.76
2022-12-11T09:02:04.930Z,0.76
2022-12-11T09:03:08.475Z,0.76
2022-12-11T09:04:06.005Z,0.79
2022-12-11T09:05:04.902Z,0.79
2022-12-11T09:06:04.939Z,0.79
2022-12-11T09:07:04.859Z,0.79
2022-12-11T09:08:04.928Z,0.78
2022-12-11T09:09:04.840Z,0.79
2022-12-11T09:10:04.849Z,0.83
2022-12-11T09:11:04.851Z,0.80
2022-12-11T09:12:04.838Z,0.84
2022-12-11T09:13:04.789Z,0.84
2022-12-11T09:14:07.645Z,0.84
2022-12-11T09:15:04.789Z,0.86
2022-12-11T09:16:04.824Z,0.84
2022-12-11T09:17:04.797Z,0.84
2022-12-11T09:18:04.760Z,0.86
2022-12-11T09:19:04.733Z,0.87
2022-12-11T09:20:04.728Z,0.87
2022-12-11T09:21:04.719Z,0.87
2022-12-11T09:22:04.716Z,0.90
2022-12-11T09:23:04.700Z,0.91
2022-12-11T09:24:04.784Z,0.90
2022-12-11T09:25:04.720Z,0.93
2022-12-11T09:26:04.689Z,0.94
2022-12-11T09:27:04.662Z,0.94
2022-12-11T09:28:04.690Z,0.96
2022-12-11T09:29:04.632Z,0.96
2022-12-11T09:30:04.647Z,0.98
2022-12-11T09:31:04.672Z,0.97
2022-12-11T09:32:04.652Z,1.00
2022-12-11T09:33:04.590Z,1.00
2022-12-11T09:34:04.626Z,1.00
2022-12-11T09:35:04.560Z,1.02
2022-12-11T09:36:04.580Z,1.04
2022-12-11T09:37:04.560Z,1.02
2022-12-11T09:38:04.541Z,1.02
2022-12-11T09:39:04.529Z,1.00
2022-12-11T09:40:07.790Z,1.04
2022-12-11T09:41:04.518Z,1.04
2022-12-11T09:42:04.566Z,1.04
2022-12-11T09:43:04.480Z,1.06
2022-12-11T09:44:04.469Z,1.06
2022-12-11T09:45:04.460Z,1.06
2022-12-11T09:46:04.524Z,1.08
2022-12-11T09:47:04.465Z,1.09
2022-12-11T09:48:04.533Z,1.11
2022-12-11T09:49:04.419Z,1.11
2022-12-11T09:50:04.482Z,1.11
2022-12-11T09:51:04.409Z,1.14
2022-12-11T09:52:04.416Z,1.15
2022-12-11T09:53:04.370Z,1.16
2022-12-11T09:54:04.585Z,1.18
2022-12-11T09:55:04.357Z,1.20
2022-12-11T09:56:04.373Z,1.20
2022-12-11T09:57:04.343Z,1.23
2022-12-11T09:58:04.321Z,1.22
2022-12-11T09:59:04.312Z,1.20
2022-12-11T10:00:05.269Z,1.20
2022-12-11T10:01:04.337Z,1.20
2022-12-11T10:02:04.301Z,1.20
2022-12-11T10:03:04.273Z,1.23
2022-12-11T10:04:04.283Z,1.24
2022-12-11T10:05:04.343Z,1.23
2022-12-11T10:06:05.243Z,1.26
2022-12-11T10:07:04.273Z,1.26
2022-12-11T10:08:04.321Z,1.27
2022-12-11T10:09:04.240Z,1.29
2022-12-11T10:10:04.271Z,1.32
2022-12-11T10:11:04.192Z,1.34
2022-12-11T10:12:04.232Z,1.33
2022-12-11T10:13:04.167Z,1.34
2022-12-11T10:14:04.288Z,1.36
2022-12-11T10:15:04.195Z,1.34
2022-12-11T10:16:04.204Z,1.34
2022-12-11T10:17:04.140Z,1.34
2022-12-11T10:18:05.346Z,1.33
2022-12-11T10:19:04.093Z,1.36
2022-12-11T10:20:04.112Z,1.37
2022-12-11T10:21:04.077Z,1.37
2022-12-11T10:22:04.099Z,1.36
2022-12-11T10:23:04.064Z,1.34
2022-12-11T10:24:04.047Z,1.36
2022-12-11T10:25:12.362Z,1.37
2022-12-11T10:26:05.064Z,1.41
2022-12-11T10:27:04.025Z,1.41
2022-12-11T10:28:04.021Z,1.42
2022-12-11T10:29:03.996Z,1.44
2022-12-11T10:30:03.991Z,1.47
2022-12-11T10:31:04.056Z,1.47
2022-12-11T10:32:04.020Z,1.50
2022-12-11T10:33:03.945Z,1.50
2022-12-11T10:34:03.958Z,1.54
2022-12-11T10:35:04.114Z,1.52
2022-12-11T10:36:03.928Z,1.52
2022-12-11T10:37:03.914Z,1.54
2022-12-11T10:38:03.954Z,1.54
2022-12-11T10:39:03.895Z,1.55
2022-12-11T10:40:03.894Z,1.58
2022-12-11T10:41:03.867Z,1.54
2022-12-11T10:42:03.960Z,1.54
2022-12-11T10:43:03.835Z,1.55
2022-12-11T10:44:03.864Z,1.59
2022-12-11T10:45:03.816Z,1.60
2022-12-11T10:46:04.129Z,1.59
2022-12-11T10:47:03.814Z,1.60
2022-12-11T10:48:03.809Z,1.62
2022-12-11T10:49:03.777Z,1.63
2022-12-11T10:50:03.868Z,1.66
2022-12-11T10:51:03.780Z,1.66
2022-12-11T10:52:03.769Z,1.63
2022-12-11T10:53:03.750Z,1.66
2022-12-11T10:54:07.127Z,1.60
2022-12-11T10:55:03.761Z,1.59
2022-12-11T10:56:03.773Z,1.59
2022-12-11T10:57:03.738Z,1.62
2022-12-11T10:58:03.698Z,1.62
2022-12-11T10:59:03.676Z,1.63
2022-12-11T11:00:03.690Z,1.65
2022-12-11T11:01:03.693Z,1.66
2022-12-11T11:02:03.765Z,1.66
2022-12-11T11:03:03.675Z,1.68
2022-12-11T11:04:03.702Z,1.68
2022-12-11T11:05:03.649Z,1.69
2022-12-11T11:06:03.618Z,1.69
2022-12-11T11:07:03.597Z,1.70
2022-12-11T11:08:03.722Z,1.72
2022-12-11T11:09:03.559Z,1.70
2022-12-11T11:10:03.863Z,1.68
2022-12-11T11:11:03.592Z,1.72
2022-12-11T11:12:07.931Z,1.79
2022-12-11T11:13:03.516Z,1.81
2022-12-11T11:14:03.559Z,1.84
2022-12-11T11:15:03.488Z,1.81
2022-12-11T11:16:03.607Z,1.80
2022-12-11T11:17:03.467Z,1.84
2022-12-11T11:18:03.491Z,1.87
2022-12-11T11:19:03.441Z,1.90
2022-12-11T11:20:03.443Z,1.93
2022-12-11T11:21:03.423Z,1.91
2022-12-11T11:22:03.422Z,1.91
2022-12-11T11:23:03.410Z,1.91
2022-12-11T11:24:03.432Z,1.88
2022-12-11T11:25:03.384Z,1.88
2022-12-11T11:26:03.450Z,1.86
2022-12-11T11:27:18.785Z,1.86
2022-12-11T11:28:04.406Z,1.86
2022-12-11T11:29:03.339Z,1.83
2022-12-11T11:30:03.367Z,1.84
2022-12-11T11:31:03.356Z,1.81
2022-12-11T11:32:03.298Z,1.79
2022-12-11T11:33:03.300Z,1.80
2022-12-11T11:34:03.423Z,1.79
2022-12-11T11:35:03.279Z,1.87
2022-12-11T11:36:03.314Z,1.87
2022-12-11T11:37:03.241Z,1.84
2022-12-11T11:38:03.289Z,1.83
2022-12-11T11:39:03.232Z,1.83
2022-12-11T11:40:03.238Z,1.79
2022-12-11T11:41:07.598Z,1.76
2022-12-11T11:42:04.192Z,1.76
2022-12-11T11:43:03.200Z,1.76
2022-12-11T11:44:03.181Z,1.70
2022-12-11T11:45:03.261Z,1.72
2022-12-11T11:46:03.165Z,1.73
2022-12-11T11:47:03.140Z,1.79
2022-12-11T11:48:07.852Z,1.80
2022-12-11T11:49:04.112Z,1.81
2022-12-11T11:50:03.366Z,1.84
2022-12-11T11:51:03.111Z,1.87
2022-12-11T11:52:03.163Z,1.86
2022-12-11T11:53:03.102Z,1.87
2022-12-11T11:54:03.116Z,1.90
2022-12-11T11:55:03.052Z,1.91
2022-12-11T11:56:03.054Z,1.91
2022-12-11T11:57:03.024Z,1.93
2022-12-11T11:58:03.084Z,1.99
2022-12-11T11:59:03.034Z,2.00
2022-12-11T12:00:03.002Z,2.03
2022-12-11T12:01:02.993Z,2.05
2022-12-11T12:02:02.995Z,2.02
2022-12-11T12:03:03.006Z,2.03
2022-12-11T12:04:03.368Z,2.00
2022-12-11T12:05:02.937Z,1.99
2022-12-11T12:06:02.956Z,1.99
2022-12-11T12:07:02.966Z,2.00
2022-12-11T12:08:02.959Z,2.00
2022-12-11T12:09:02.924Z,1.98
2022-12-11T12:10:02.924Z,1.99
2022-12-11T12:11:02.894Z,2.02
2022-12-11T12:12:02.893Z,2.03
2022-12-11T12:13:02.856Z,2.03
2022-12-11T12:14:03.431Z,2.05
2022-12-11T12:15:02.837Z,2.05
2022-12-11T12:16:02.907Z,2.05
2022-12-11T12:17:02.868Z,2.07
2022-12-11T12:18:02.840Z,2.09
2022-12-11T12:19:02.797Z,2.09
2022-12-11T12:20:02.876Z,2.07
2022-12-11T12:21:02.764Z,2.09
2022-12-11T12:22:02.887Z,2.09
2022-12-11T12:23:02.754Z,2.09
2022-12-11T12:24:02.791Z,2.10
2022-12-11T12:25:02.735Z,2.10
2022-12-11T12:26:02.724Z,2.12
2022-12-11T12:27:02.733Z,2.10
2022-12-11T12:28:02.695Z,2.12
2022-12-11T12:29:02.695Z,2.16
2022-12-11T12:30:02.749Z,2.14
2022-12-11T12:31:02.668Z,2.14
2022-12-11T12:32:02.723Z,2.14
2022-12-11T12:33:02.645Z,2.12
2022-12-11T12:34:02.637Z,2.14
2022-12-11T12:35:02.664Z,2.16
2022-12-11T12:36:06.814Z,2.12
2022-12-11T12:37:02.610Z,2.10
2022-12-11T12:38:02.689Z,2.12
2022-12-11T12:39:02.588Z,2.14
2022-12-11T12:40:02.919Z,2.16
2022-12-11T12:41:02.564Z,2.17
2022-12-11T12:42:07.230Z,2.16
2022-12-11T12:43:03.526Z,2.16
2022-12-11T12:44:02.605Z,2.14
2022-12-11T12:45:02.515Z,2.12
2022-12-11T12:46:02.580Z,2.12
2022-12-11T12:47:02.519Z,2.12
2022-12-11T12:48:02.509Z,2.07
2022-12-11T12:49:02.477Z,2.07
2022-12-11T12:50:02.524Z,2.07
2022-12-11T12:51:02.446Z,2.10
2022-12-11T12:52:02.525Z,2.12
2022-12-11T12:53:02.431Z,2.16
2022-12-11T12:54:03.256Z,2.17
2022-12-11T12:55:02.399Z,2.16
2022-12-11T12:56:02.418Z,2.16
2022-12-11T12:57:02.391Z,2.12
2022-12-11T12:58:02.369Z,2.14
2022-12-11T12:59:02.422Z,2.16
2022-12-11T13:00:03.320Z,2.16
2022-12-11T13:01:02.364Z,2.17
2022-12-11T13:02:02.390Z,2.14
2022-12-11T13:03:02.320Z,2.14
2022-12-11T13:04:02.314Z,2.14
2022-12-11T13:05:02.349Z,2.18
2022-12-11T13:06:02.322Z,2.18
2022-12-11T13:07:02.318Z,2.17
2022-12-11T13:08:02.325Z,2.20
2022-12-11T13:09:02.281Z,2.20
2022-12-11T13:10:02.249Z,2.23
2022-12-11T13:11:02.229Z,2.28
2022-12-11T13:12:02.265Z,2.28
2022-12-11T13:13:02.199Z,2.28
2022-12-11T13:14:02.268Z,2.25
2022-12-11T13:15:02.191Z,2.25
2022-12-11T13:16:02.220Z,2.23
2022-12-11T13:17:02.160Z,2.23
2022-12-11T13:18:02.197Z,2.24